sensor_id;sensor_type;location;lat;lon;timestamp;pressure;altitude;pressure_sealevel;temperature;humidity
54910;BME280;63189;51.240;9.964;2023-01-30T00:01:24;98027.97;;;-1.54;100.00
54910;BME280;63189;51.240;9.964;2023-01-30T00:03:49;98017.78;;;-1.52;100.00
54910;BME280;63189;51.240;9.964;2023-01-30T00:06:15;98019.44;;;-1.56;100.00
54910;BME280;63189;51.240;9.964;2023-01-30T00:08:41;97998.91;;;-1.59;100.00
54910;BME280;63189;51.240;9.964;2023-01-30T00:11:09;97992.91;;;-1.61;100.00
54910;BME280;63189;51.240;9.964;2023-01-30T00:13:35;97972.44;;;-1.62;100.00
54910;BME280;63189;51.240;9.964;2023-01-30T00:16:01;97969.78;;;-1.67;100.00
54910;BME280;63189;51.240;9.964;2023-01-30T00:18:26;97969.78;;;-1.67;100.00
54910;BME280;63189;51.240;9.964;2023-01-30T00:20:58;97940.78;;;-1.69;100.00
54910;BME280;63189;51.240;9.964;2023-01-30T00:23:25;97931.38;;;-1.70;100.00
54910;BME280;63189;51.240;9.964;2023-01-30T00:25:51;97916.03;;;-1.71;100.00
54910;BME280;63189;51.240;9.964;2023-01-30T00:28:16;97890.50;;;-1.70;100.00
54910;BME280;63189;51.240;9.964;2023-01-30T00:30:41;97913.47;;;-1.73;100.00
54910;BME280;63189;51.240;9.964;2023-01-30T00:33:08;97912.63;;;-1.72;100.00
54910;BME280;63189;51.240;9.964;2023-01-30T00:35:34;97916.03;;;-1.71;100.00
54910;BME280;63189;51.240;9.964;2023-01-30T00:37:59;97892.16;;;-1.72;100.00
54910;BME280;63189;51.240;9.964;2023-01-30T00:40:26;97918.56;;;-1.73;100.00
54910;BME280;63189;51.240;9.964;2023-01-30T00:42:52;97945.78;;;-1.77;100.00
54910;BME280;63189;51.240;9.964;2023-01-30T00:45:36;97941.63;;;-1.68;100.00
54910;BME280;63189;51.240;9.964;2023-01-30T00:48:21;97905.81;;;-1.71;100.00
54910;BME280;63189;51.240;9.964;2023-01-30T00:50:46;97887.94;;;-1.70;100.00
54910;BME280;63189;51.240;9.964;2023-01-30T00:53:13;97894.72;;;-1.72;100.00
54910;BME280;63189;51.240;9.964;2023-01-30T00:55:39;97908.38;;;-1.70;100.00
54910;BME280;63189;51.240;9.964;2023-01-30T00:58:04;97895.59;;;-1.71;100.00
54910;BME280;63189;51.240;9.964;2023-01-30T01:00:30;97875.13;;;-1.71;100.00
54910;BME280;63189;51.240;9.964;2023-01-30T01:02:56;97885.38;;;-1.71;100.00
54910;BME280;63189;51.240;9.964;2023-01-30T01:05:21;97882.81;;;-1.70;100.00
54910;BME280;63189;51.240;9.964;2023-01-30T01:07:47;97863.19;;;-1.72;100.00
54910;BME280;63189;51.240;9.964;2023-01-30T01:10:12;97857.22;;;-1.73;100.00
54910;BME280;63189;51.240;9.964;2023-01-30T01:12:41;97880.31;;;-1.67;100.00
54910;BME280;63189;51.240;9.964;2023-01-30T01:15:08;97869.22;;;-1.69;100.00
54910;BME280;63189;51.240;9.964;2023-01-30T01:17:33;97900.75;;;-1.68;100.00
54910;BME280;63189;51.240;9.964;2023-01-30T01:19:58;97899.09;;;-1.66;100.00
54910;BME280;63189;51.240;9.964;2023-01-30T01:22:24;97894.84;;;-1.66;100.00
54910;BME280;63189;51.240;9.964;2023-01-30T01:24:49;97886.34;;;-1.63;100.00
54910;BME280;63189;51.240;9.964;2023-01-30T01:27:14;97886.34;;;-1.63;100.00
54910;BME280;63189;51.240;9.964;2023-01-30T01:29:40;97881.19;;;-1.66;100.00
54910;BME280;63189;51.240;9.964;2023-01-30T01:32:06;97882.13;;;-1.61;100.00
54910;BME280;63189;51.240;9.964;2023-01-30T01:34:31;97864.22;;;-1.63;100.00
54910;BME280;63189;51.240;9.964;2023-01-30T01:36:56;97852.19;;;-1.67;100.00
54910;BME280;63189;51.240;9.964;2023-01-30T01:39:22;97839.41;;;-1.67;100.00
54910;BME280;63189;51.240;9.964;2023-01-30T01:41:47;97840.38;;;-1.62;100.00
54910;BME280;63189;51.240;9.964;2023-01-30T01:44:13;97836.13;;;-1.60;100.00
54910;BME280;63189;51.240;9.964;2023-01-30T01:46:50;97854.03;;;-1.60;100.00
54910;BME280;63189;51.240;9.964;2023-01-30T01:51:55;97837.06;;;-1.55;100.00
54910;BME280;63189;51.240;9.964;2023-01-30T01:54:28;97817.47;;;-1.54;100.00
54910;BME280;63189;51.240;9.964;2023-01-30T01:56:55;97821.75;;;-1.53;100.00
54910;BME280;63189;51.240;9.964;2023-01-30T01:59:29;97822.66;;;-1.48;100.00
54910;BME280;63189;51.240;9.964;2023-01-30T02:01:59;97830.31;;;-1.50;100.00
54910;BME280;63189;51.240;9.964;2023-01-30T02:04:26;97831.19;;;-1.48;100.00
54910;BME280;63189;51.240;9.964;2023-01-30T02:07:11;97809.91;;;-1.47;100.00
54910;BME280;63189;51.240;9.964;2023-01-30T02:09:36;97805.72;;;-1.41;100.00
54910;BME280;63189;51.240;9.964;2023-01-30T02:12:03;97805.72;;;-1.41;100.00
54910;BME280;63189;51.240;9.964;2023-01-30T02:14:31;97803.19;;;-1.40;100.00
54910;BME280;63189;51.240;9.964;2023-01-30T02:16:57;97786.13;;;-1.41;100.00
54910;BME280;63189;51.240;9.964;2023-01-30T02:19:46;97789.59;;;-1.36;100.00
54910;BME280;63189;51.240;9.964;2023-01-30T02:23:06;97770.91;;;-1.33;100.00
54910;BME280;63189;51.240;9.964;2023-01-30T02:25:59;97755.56;;;-1.33;100.00
54910;BME280;63189;51.240;9.964;2023-01-30T02:45:57;97709.63;;;-1.24;100.00
54910;BME280;63189;51.240;9.964;2023-01-30T02:48:50;97703.69;;;-1.23;100.00
54910;BME280;63189;51.240;9.964;2023-01-30T02:51:23;97697.66;;;-1.25;100.00
54910;BME280;63189;51.240;9.964;2023-01-30T02:53:50;97691.75;;;-1.21;100.00
54910;BME280;63189;51.240;9.964;2023-01-30T02:56:16;97690.03;;;-1.24;100.00
54910;BME280;63189;51.240;9.964;2023-01-30T02:58:48;97685.78;;;-1.23;100.00
54910;BME280;63189;51.240;9.964;2023-01-30T03:12:48;97668.66;;;-1.27;100.00
54910;BME280;63189;51.240;9.964;2023-01-30T03:15:24;97682.31;;;-1.25;100.00
54910;BME280;63189;51.240;9.964;2023-01-30T03:17:53;97677.25;;;-1.24;100.00
54910;BME280;63189;51.240;9.964;2023-01-30T03:20:19;97676.44;;;-1.18;100.00
54910;BME280;63189;51.240;9.964;2023-01-30T03:22:45;97682.44;;;-1.16;100.00
54910;BME280;63189;51.240;9.964;2023-01-30T03:25:15;97681.63;;;-1.13;100.00
54910;BME280;63189;51.240;9.964;2023-01-30T03:27:42;97672.28;;;-1.10;100.00
54910;BME280;63189;51.240;9.964;2023-01-30T03:30:09;97640.72;;;-1.12;100.00
54910;BME280;63189;51.240;9.964;2023-01-30T03:32:35;97664.63;;;-1.07;100.00
54910;BME280;63189;51.240;9.964;2023-01-30T03:35:00;97669.81;;;-1.02;100.00
54910;BME280;63189;51.240;9.964;2023-01-30T03:37:26;97656.16;;;-1.03;100.00
54910;BME280;63189;51.240;9.964;2023-01-30T03:39:51;97647.66;;;-1.00;100.00
54910;BME280;63189;51.240;9.964;2023-01-30T03:42:17;97651.91;;;-1.01;100.00
54910;BME280;63189;51.240;9.964;2023-01-30T03:44:42;97645.09;;;-0.97;100.00
54910;BME280;63189;51.240;9.964;2023-01-30T03:47:07;97635.78;;;-0.92;100.00
54910;BME280;63189;51.240;9.964;2023-01-30T03:49:33;97616.13;;;-0.95;100.00
54910;BME280;63189;51.240;9.964;2023-01-30T03:51:58;97619.59;;;-0.91;100.00
54910;BME280;63189;51.240;9.964;2023-01-30T03:54:23;97623.03;;;-0.88;100.00
54910;BME280;63189;51.240;9.964;2023-01-30T03:56:49;97623.91;;;-0.84;100.00
54910;BME280;63189;51.240;9.964;2023-01-30T03:59:14;97617.97;;;-0.81;100.00
54910;BME280;63189;51.240;9.964;2023-01-30T04:01:39;97609.44;;;-0.82;100.00
54910;BME280;63189;51.240;9.964;2023-01-30T04:04:05;97617.13;;;-0.79;100.00
54910;BME280;63189;51.240;9.964;2023-01-30T04:06:31;97619.72;;;-0.74;100.00
54910;BME280;63189;51.240;9.964;2023-01-30T04:08:56;97620.56;;;-0.74;100.00
54910;BME280;63189;51.240;9.964;2023-01-30T04:11:22;97630.03;;;-0.68;100.00
54910;BME280;63189;51.240;9.964;2023-01-30T04:13:47;97614.69;;;-0.65;100.00
54910;BME280;63189;51.240;9.964;2023-01-30T04:16:24;97616.44;;;-0.61;100.00
54910;BME280;63189;51.240;9.964;2023-01-30T04:18:51;97611.34;;;-0.56;100.00
54910;BME280;63189;51.240;9.964;2023-01-30T04:21:16;97603.72;;;-0.52;100.00
54910;BME280;63189;51.240;9.964;2023-01-30T04:23:41;97582.38;;;-0.48;100.00
54910;BME280;63189;51.240;9.964;2023-01-30T04:26:08;97589.22;;;-0.45;100.00
54910;BME280;63189;51.240;9.964;2023-01-30T04:28:33;97564.50;;;-0.42;100.00
54910;BME280;63189;51.240;9.964;2023-01-30T04:30:59;97587.56;;;-0.39;100.00
54910;BME280;63189;51.240;9.964;2023-01-30T04:33:24;97585.88;;;-0.37;100.00
54910;BME280;63189;51.240;9.964;2023-01-30T04:35:54;97586.75;;;-0.35;100.00
54910;BME280;63189;51.240;9.964;2023-01-30T04:38:21;97556.88;;;-0.33;100.00
54910;BME280;63189;51.240;9.964;2023-01-30T04:40:48;97547.50;;;-0.31;100.00
54910;BME280;63189;51.240;9.964;2023-01-30T04:43:15;97539.78;;;-0.34;100.00
54910;BME280;63189;51.240;9.964;2023-01-30T04:45:45;97546.63;;;-0.33;100.00
54910;BME280;63189;51.240;9.964;2023-01-30T04:48:11;97530.41;;;-0.33;100.00
54910;BME280;63189;51.240;9.964;2023-01-30T04:50:37;97526.13;;;-0.36;100.00
54910;BME280;63189;51.240;9.964;2023-01-30T04:53:03;97523.59;;;-0.30;100.00
54910;BME280;63189;51.240;9.964;2023-01-30T04:55:28;97535.56;;;-0.27;100.00
54910;BME280;63189;51.240;9.964;2023-01-30T04:57:53;97520.19;;;-0.25;100.00
54910;BME280;63189;51.240;9.964;2023-01-30T05:00:19;97510.81;;;-0.26;100.00
54910;BME280;63189;51.240;9.964;2023-01-30T05:02:44;97503.97;;;-0.24;100.00
54910;BME280;63189;51.240;9.964;2023-01-30T05:05:10;97514.25;;;-0.20;100.00
54910;BME280;63189;51.240;9.964;2023-01-30T05:07:35;97508.28;;;-0.16;100.00
54910;BME280;63189;51.240;9.964;2023-01-30T05:10:01;97505.72;;;-0.16;100.00
54910;BME280;63189;51.240;9.964;2023-01-30T05:12:27;97507.44;;;-0.13;100.00
54910;BME280;63189;51.240;9.964;2023-01-30T05:14:53;97498.91;;;-0.14;100.00
54910;BME280;63189;51.240;9.964;2023-01-30T05:17:18;97515.13;;;-0.12;100.00
54910;BME280;63189;51.240;9.964;2023-01-30T05:19:45;97505.78;;;-0.10;100.00
54910;BME280;63189;51.240;9.964;2023-01-30T05:22:10;97499.78;;;-0.10;100.00
54910;BME280;63189;51.240;9.964;2023-01-30T05:24:37;97502.34;;;-0.07;100.00
54910;BME280;63189;51.240;9.964;2023-01-30T05:27:04;97494.66;;;-0.06;100.00
54910;BME280;63189;51.240;9.964;2023-01-30T05:29:30;97497.22;;;-0.04;100.00
54910;BME280;63189;51.240;9.964;2023-01-30T05:31:55;97501.50;;;-0.03;100.00
54910;BME280;63189;51.240;9.964;2023-01-30T05:34:20;97483.59;;;0.00;100.00
54910;BME280;63189;51.240;9.964;2023-01-30T05:36:46;97481.84;;;-0.01;100.00
54910;BME280;63189;51.240;9.964;2023-01-30T05:39:11;97498.97;;;0.02;100.00
54910;BME280;63189;51.240;9.964;2023-01-30T05:41:37;97493.84;;;0.03;100.00
54910;BME280;63189;51.240;9.964;2023-01-30T05:44:02;97474.19;;;0.04;100.00
54910;BME280;63189;51.240;9.964;2023-01-30T05:46:28;97469.06;;;0.05;100.00
54910;BME280;63189;51.240;9.964;2023-01-30T05:48:53;97467.38;;;0.04;100.00
54910;BME280;63189;51.240;9.964;2023-01-30T05:51:21;97474.19;;;0.04;100.00
54910;BME280;63189;51.240;9.964;2023-01-30T05:53:46;97461.38;;;0.05;100.00
54910;BME280;63189;51.240;9.964;2023-01-30T05:56:12;97459.69;;;0.09;100.00
54910;BME280;63189;51.240;9.964;2023-01-30T05:58:37;97453.69;;;0.04;100.00
54910;BME280;63189;51.240;9.964;2023-01-30T06:01:05;97459.69;;;0.04;100.00
54910;BME280;63189;51.240;9.964;2023-01-30T06:03:31;97463.09;;;0.03;100.00
54910;BME280;63189;51.240;9.964;2023-01-30T06:05:56;97467.34;;;-0.02;100.00
54910;BME280;63189;51.240;9.964;2023-01-30T06:08:22;97469.06;;;0.02;100.00
54910;BME280;63189;51.240;9.964;2023-01-30T06:10:47;97458.81;;;0.04;100.00
54910;BME280;63189;51.240;9.964;2023-01-30T06:13:13;97446.88;;;0.01;100.00
54910;BME280;63189;51.240;9.964;2023-01-30T06:15:38;97467.38;;;0.04;100.00
54910;BME280;63189;51.240;9.964;2023-01-30T06:18:04;97474.19;;;0.07;100.00
54910;BME280;63189;51.240;9.964;2023-01-30T06:20:29;97474.19;;;0.10;100.00
54910;BME280;63189;51.240;9.964;2023-01-30T06:22:55;97462.25;;;0.07;100.00
54910;BME280;63189;51.240;9.964;2023-01-30T06:25:20;97463.09;;;0.09;100.00
54910;BME280;63189;51.240;9.964;2023-01-30T06:27:45;97457.13;;;0.09;100.00
54910;BME280;63189;51.240;9.964;2023-01-30T06:30:11;97463.13;;;0.12;100.00
54910;BME280;63189;51.240;9.964;2023-01-30T06:32:37;97463.97;;;0.11;100.00
54910;BME280;63189;51.240;9.964;2023-01-30T06:35:03;97458.84;;;0.13;100.00
54910;BME280;63189;51.240;9.964;2023-01-30T06:37:28;97478.50;;;0.15;100.00
54910;BME280;63189;51.240;9.964;2023-01-30T06:39:53;97459.72;;;0.16;100.00
54910;BME280;63189;51.240;9.964;2023-01-30T06:42:19;97451.16;;;0.17;100.00
54910;BME280;63189;51.240;9.964;2023-01-30T06:44:44;97442.63;;;0.18;100.00
54910;BME280;63189;51.240;9.964;2023-01-30T06:47:09;97456.31;;;0.23;100.00
54910;BME280;63189;51.240;9.964;2023-01-30T06:49:35;97450.34;;;0.24;100.00
54910;BME280;63189;51.240;9.964;2023-01-30T06:52:01;97454.59;;;0.22;100.00
54910;BME280;63189;51.240;9.964;2023-01-30T06:54:26;97437.50;;;0.24;100.00
54910;BME280;63189;51.240;9.964;2023-01-30T06:56:52;97458.03;;;0.24;100.00
54910;BME280;63189;51.240;9.964;2023-01-30T06:59:17;97450.34;;;0.24;100.00
54910;BME280;63189;51.240;9.964;2023-01-30T07:01:43;97464.84;;;0.27;100.00
54910;BME280;63189;51.240;9.964;2023-01-30T07:04:08;97451.19;;;0.26;100.00
54910;BME280;63189;51.240;9.964;2023-01-30T07:06:33;97460.59;;;0.27;100.00
54910;BME280;63189;51.240;9.964;2023-01-30T07:08:59;97469.13;;;0.29;100.00
54910;BME280;63189;51.240;9.964;2023-01-30T07:11:25;97463.16;;;0.31;100.00
54910;BME280;63189;51.240;9.964;2023-01-30T07:13:50;97464.03;;;0.33;100.00
54910;BME280;63189;51.240;9.964;2023-01-30T07:16:16;97464.88;;;0.32;100.00
54910;BME280;63189;51.240;9.964;2023-01-30T07:18:41;97451.22;;;0.37;100.00
54910;BME280;63189;51.240;9.964;2023-01-30T07:21:06;97457.19;;;0.39;100.00
54910;BME280;63189;51.240;9.964;2023-01-30T07:23:32;97458.91;;;0.40;100.00
54910;BME280;63189;51.240;9.964;2023-01-30T07:25:57;97456.34;;;0.42;100.00
54910;BME280;63189;51.240;9.964;2023-01-30T07:28:22;97473.44;;;0.43;100.00
54910;BME280;63189;51.240;9.964;2023-01-30T07:30:48;97465.75;;;0.43;100.00
54910;BME280;63189;51.240;9.964;2023-01-30T07:33:17;97471.75;;;0.46;100.00
54910;BME280;63189;51.240;9.964;2023-01-30T07:35:42;97480.28;;;0.44;100.00
54910;BME280;63189;51.240;9.964;2023-01-30T07:38:07;97452.09;;;0.44;100.00
54910;BME280;63189;51.240;9.964;2023-01-30T07:40:33;97440.97;;;0.46;100.00
54910;BME280;63189;51.240;9.964;2023-01-30T07:43:01;97440.09;;;0.47;100.00
54910;BME280;63189;51.240;9.964;2023-01-30T07:45:46;97452.91;;;0.50;100.00
54910;BME280;63189;51.240;9.964;2023-01-30T07:48:14;97441.84;;;0.53;100.00
54910;BME280;63189;51.240;9.964;2023-01-30T07:50:40;97434.13;;;0.54;100.00
54910;BME280;63189;51.240;9.964;2023-01-30T07:53:08;97431.56;;;0.57;100.00
54910;BME280;63189;51.240;9.964;2023-01-30T07:55:34;97442.69;;;0.60;100.00
54910;BME280;63189;51.240;9.964;2023-01-30T07:58:00;97442.69;;;0.58;100.00
54910;BME280;63189;51.240;9.964;2023-01-30T08:00:26;97434.13;;;0.59;100.00
54910;BME280;63189;51.240;9.964;2023-01-30T08:02:51;97434.97;;;0.58;100.00
54910;BME280;63189;51.240;9.964;2023-01-30T08:05:17;97443.53;;;0.60;100.00
54910;BME280;63189;51.240;9.964;2023-01-30T08:07:42;97443.53;;;0.65;100.00
54910;BME280;63189;51.240;9.964;2023-01-30T08:10:08;97434.13;;;0.70;100.00
54910;BME280;63189;51.240;9.964;2023-01-30T08:12:34;97426.44;;;0.68;100.00
54910;BME280;63189;51.240;9.964;2023-01-30T08:14:59;97441.84;;;0.65;100.00
54910;BME280;63189;51.240;9.964;2023-01-30T08:17:25;97444.38;;;0.62;100.00
54910;BME280;63189;51.240;9.964;2023-01-30T08:19:50;97443.56;;;0.63;100.00
54910;BME280;63189;51.240;9.964;2023-01-30T08:22:15;97425.59;;;0.66;100.00
54910;BME280;63189;51.240;9.964;2023-01-30T08:24:41;97424.75;;;0.64;100.00
54910;BME280;63189;51.240;9.964;2023-01-30T08:27:07;97446.09;;;0.71;100.00
54910;BME280;63189;51.240;9.964;2023-01-30T08:29:32;97423.00;;;0.72;100.00
54910;BME280;63189;51.240;9.964;2023-01-30T08:31:58;97439.25;;;0.77;100.00
54910;BME280;63189;51.240;9.964;2023-01-30T08:34:24;97419.59;;;0.79;100.00
54910;BME280;63189;51.240;9.964;2023-01-30T08:36:50;97399.06;;;0.85;100.00
54910;BME280;63189;51.240;9.964;2023-01-30T08:39:15;97413.59;;;0.94;100.00
54910;BME280;63189;51.240;9.964;2023-01-30T08:41:40;97405.00;;;1.01;100.00
54910;BME280;63189;51.240;9.964;2023-01-30T08:44:08;97403.28;;;1.12;100.00
54910;BME280;63189;51.240;9.964;2023-01-30T08:46:36;97410.97;;;1.14;100.00
54910;BME280;63189;51.240;9.964;2023-01-30T08:49:02;97404.13;;;1.21;100.00
54910;BME280;63189;51.240;9.964;2023-01-30T08:51:28;97404.97;;;1.21;100.00
54910;BME280;63189;51.240;9.964;2023-01-30T08:53:56;97419.53;;;1.27;100.00
54910;BME280;63189;51.240;9.964;2023-01-30T08:56:22;97419.50;;;1.30;100.00
54910;BME280;63189;51.240;9.964;2023-01-30T08:58:47;97451.16;;;1.33;100.00
54910;BME280;63189;51.240;9.964;2023-01-30T09:01:13;97461.44;;;1.32;100.00
54910;BME280;63189;51.240;9.964;2023-01-30T09:03:39;97458.91;;;1.29;100.00
54910;BME280;63189;51.240;9.964;2023-01-30T09:06:08;97466.59;;;1.30;100.00
54910;BME280;63189;51.240;9.964;2023-01-30T09:08:34;97471.72;;;1.29;100.00
54910;BME280;63189;51.240;9.964;2023-01-30T09:11:01;97470.91;;;1.25;100.00
54910;BME280;63189;51.240;9.964;2023-01-30T09:13:27;97487.97;;;1.25;100.00
54910;BME280;63189;51.240;9.964;2023-01-30T09:15:53;97483.72;;;1.19;100.00
54910;BME280;63189;51.240;9.964;2023-01-30T09:18:19;97477.72;;;1.14;100.00
54910;BME280;63189;51.240;9.964;2023-01-30T09:20:44;97486.31;;;1.10;100.00
54910;BME280;63189;51.240;9.964;2023-01-30T09:23:10;97481.16;;;1.10;100.00
54910;BME280;63189;51.240;9.964;2023-01-30T09:25:42;97476.91;;;1.06;100.00
54910;BME280;63189;51.240;9.964;2023-01-30T09:28:08;97471.75;;;1.06;100.00
54910;BME280;63189;51.240;9.964;2023-01-30T09:30:33;97484.59;;;1.01;100.00
54910;BME280;63189;51.240;9.964;2023-01-30T09:32:58;97488.03;;;0.97;100.00
54910;BME280;63189;51.240;9.964;2023-01-30T09:35:24;97499.16;;;0.95;100.00
54910;BME280;63189;51.240;9.964;2023-01-30T09:37:51;97488.88;;;0.92;100.00
54910;BME280;63189;51.240;9.964;2023-01-30T09:40:20;97491.44;;;0.89;100.00
54910;BME280;63189;51.240;9.964;2023-01-30T09:48:12;97500.00;;;0.97;100.00
54910;BME280;63189;51.240;9.964;2023-01-30T09:53:37;97490.59;;;1.08;100.00
54910;BME280;63189;51.240;9.964;2023-01-30T09:56:04;97497.41;;;1.12;100.00
54910;BME280;63189;51.240;9.964;2023-01-30T09:58:53;97504.28;;;1.16;100.00
54910;BME280;63189;51.240;9.964;2023-01-30T10:01:26;97501.69;;;1.22;100.00
54910;BME280;63189;51.240;9.964;2023-01-30T10:06:47;97500.84;;;1.28;100.00
54910;BME280;63189;51.240;9.964;2023-01-30T10:25:03;97499.09;;;1.47;100.00
54910;BME280;63189;51.240;9.964;2023-01-30T10:27:35;97484.53;;;1.47;100.00
54910;BME280;63189;51.240;9.964;2023-01-30T10:30:04;97473.38;;;1.59;100.00
54910;BME280;63189;51.240;9.964;2023-01-30T10:32:52;97469.94;;;1.63;100.00
54910;BME280;63189;51.240;9.964;2023-01-30T10:35:26;97467.34;;;1.66;100.00
54910;BME280;63189;51.240;9.964;2023-01-30T10:41:12;97487.03;;;1.73;100.00
54910;BME280;63189;51.240;9.964;2023-01-30T10:43:45;97479.31;;;1.74;100.00
54910;BME280;63189;51.240;9.964;2023-01-30T10:46:38;97499.88;;;1.78;100.00
54910;BME280;63189;51.240;9.964;2023-01-30T10:49:12;97505.84;;;1.81;100.00
54910;BME280;63189;51.240;9.964;2023-01-30T10:59:57;97481.84;;;1.88;100.00
54910;BME280;63189;51.240;9.964;2023-01-30T11:02:52;97481.81;;;1.94;100.00
54910;BME280;63189;51.240;9.964;2023-01-30T11:08:30;97460.00;;;2.64;100.00
54910;BME280;63189;51.240;9.964;2023-01-30T11:10:57;97452.22;;;2.69;100.00
54910;BME280;63189;51.240;9.964;2023-01-30T11:13:27;97452.19;;;2.75;100.00
54910;BME280;63189;51.240;9.964;2023-01-30T11:15:58;97455.59;;;2.77;100.00
54910;BME280;63189;51.240;9.964;2023-01-30T11:18:27;97459.03;;;2.76;100.00
54910;BME280;63189;51.240;9.964;2023-01-30T11:21:04;97455.63;;;2.71;100.00
54910;BME280;63189;51.240;9.964;2023-01-30T11:25:56;97469.47;;;2.57;100.00
54910;BME280;63189;51.240;9.964;2023-01-30T11:28:24;97476.38;;;2.49;100.00
54910;BME280;63189;51.240;9.964;2023-01-30T11:30:59;97473.00;;;2.43;100.00
54910;BME280;63189;51.240;9.964;2023-01-30T11:33:35;97489.31;;;2.36;100.00
54910;BME280;63189;51.240;9.964;2023-01-30T11:36:06;97471.34;;;2.28;100.00
54910;BME280;63189;51.240;9.964;2023-01-30T11:38:36;97465.44;;;2.20;100.00
54910;BME280;63189;51.240;9.964;2023-01-30T11:41:15;97471.41;;;2.19;100.00
54910;BME280;63189;51.240;9.964;2023-01-30T11:43:42;97464.56;;;2.15;100.00
54910;BME280;63189;51.240;9.964;2023-01-30T11:46:09;97456.84;;;2.18;100.00
54910;BME280;63189;51.240;9.964;2023-01-30T11:48:46;97468.81;;;2.25;100.00
54910;BME280;63189;51.240;9.964;2023-01-30T11:51:14;97470.47;;;2.35;100.00
54910;BME280;63189;51.240;9.964;2023-01-30T11:53:48;97466.19;;;2.34;100.00
54910;BME280;63189;51.240;9.964;2023-01-30T11:56:39;97461.00;;;2.39;100.00
54910;BME280;63189;51.240;9.964;2023-01-30T12:01:46;97425.63;;;2.73;100.00
54910;BME280;63189;51.240;9.964;2023-01-30T12:04:12;97434.06;;;2.88;100.00
54910;BME280;63189;51.240;9.964;2023-01-30T12:06:40;97441.56;;;3.11;100.00
54910;BME280;63189;51.240;9.964;2023-01-30T12:09:33;97421.78;;;3.16;100.00
54910;BME280;63189;51.240;9.964;2023-01-30T12:11:59;97422.66;;;3.15;100.00
54910;BME280;63189;51.240;9.964;2023-01-30T12:19:50;97431.34;;;3.05;100.00
54910;BME280;63189;51.240;9.964;2023-01-30T12:22:44;97434.78;;;3.06;100.00
54910;BME280;63189;51.240;9.964;2023-01-30T12:25:22;97433.09;;;3.00;100.00
54910;BME280;63189;51.240;9.964;2023-01-30T12:27:58;97435.75;;;2.94;100.00
54910;BME280;63189;51.240;9.964;2023-01-30T12:30:42;97433.22;;;2.85;100.00
54910;BME280;63189;51.240;9.964;2023-01-30T12:33:13;97439.31;;;2.76;100.00
54910;BME280;63189;51.240;9.964;2023-01-30T12:41:43;97446.34;;;2.53;100.00
54910;BME280;63189;51.240;9.964;2023-01-30T12:44:15;97460.13;;;2.44;100.00
54910;BME280;63189;51.240;9.964;2023-01-30T12:52:51;97445.59;;;2.36;100.00
54910;BME280;63189;51.240;9.964;2023-01-30T13:03:22;97476.66;;;2.00;100.00
54910;BME280;63189;51.240;9.964;2023-01-30T13:05:59;97474.16;;;1.88;100.00
54910;BME280;63189;51.240;9.964;2023-01-30T13:19:26;97464.81;;;1.60;100.00
54910;BME280;63189;51.240;9.964;2023-01-30T13:22:03;97479.31;;;1.74;100.00
54910;BME280;63189;51.240;9.964;2023-01-30T13:27:21;97450.09;;;1.98;100.00
54910;BME280;63189;51.240;9.964;2023-01-30T13:29:47;97458.63;;;2.05;100.00
54910;BME280;63189;51.240;9.964;2023-01-30T13:32:24;97456.94;;;2.02;100.00
54910;BME280;63189;51.240;9.964;2023-01-30T13:34:52;97454.34;;;2.09;100.00
54910;BME280;63189;51.240;9.964;2023-01-30T13:37:21;97447.44;;;2.14;100.00
54910;BME280;63189;51.240;9.964;2023-01-30T13:40:00;97442.28;;;2.20;100.00
54910;BME280;63189;51.240;9.964;2023-01-30T13:44:58;97443.78;;;2.51;100.00
54910;BME280;63189;51.240;9.964;2023-01-30T13:47:48;97435.13;;;2.65;100.00
54910;BME280;63189;51.240;9.964;2023-01-30T13:53:14;97428.13;;;2.79;100.00
54910;BME280;63189;51.240;9.964;2023-01-30T13:55:50;97441.81;;;2.81;100.00
54910;BME280;63189;51.240;9.964;2023-01-30T14:01:09;97452.16;;;2.78;100.00
54910;BME280;63189;51.240;9.964;2023-01-30T14:03:35;97446.13;;;2.79;98.95
54910;BME280;63189;51.240;9.964;2023-01-30T14:06:03;97451.28;;;2.83;100.00
54910;BME280;63189;51.240;9.964;2023-01-30T14:08:37;97449.56;;;2.81;99.38
54910;BME280;63189;51.240;9.964;2023-01-30T14:11:24;97470.16;;;2.82;100.00
54910;BME280;63189;51.240;9.964;2023-01-30T14:13:59;97469.28;;;2.80;100.00
54910;BME280;63189;51.240;9.964;2023-01-30T14:17:14;97491.69;;;2.74;100.00
54910;BME280;63189;51.240;9.964;2023-01-30T14:19:56;97472.81;;;2.73;100.00
54910;BME280;63189;51.240;9.964;2023-01-30T14:22:31;97492.53;;;2.70;100.00
54910;BME280;63189;51.240;9.964;2023-01-30T14:32:55;97511.63;;;2.35;100.00
54910;BME280;63189;51.240;9.964;2023-01-30T14:35:27;97519.38;;;2.26;100.00
54910;BME280;63189;51.240;9.964;2023-01-30T14:48:51;97540.06;;;2.05;100.00
54910;BME280;63189;51.240;9.964;2023-01-30T14:54:01;97553.78;;;2.03;100.00
54910;BME280;63189;51.240;9.964;2023-01-30T14:56:39;97561.47;;;2.07;100.00
54910;BME280;63189;51.240;9.964;2023-01-30T15:02:17;97566.59;;;2.14;100.00
54910;BME280;63189;51.240;9.964;2023-01-30T15:07:54;97579.44;;;2.22;100.00
54910;BME280;63189;51.240;9.964;2023-01-30T15:22:03;97601.69;;;2.32;100.00
54910;BME280;63189;51.240;9.964;2023-01-30T15:25:06;97604.25;;;2.32;100.00
54910;BME280;63189;51.240;9.964;2023-01-30T15:30:15;97635.97;;;2.34;100.00
54910;BME280;63189;51.240;9.964;2023-01-30T15:32:42;97625.69;;;2.31;100.00
54910;BME280;63189;51.240;9.964;2023-01-30T15:37:46;97650.56;;;2.27;100.00
54910;BME280;63189;51.240;9.964;2023-01-30T15:45:31;97672.91;;;2.19;100.00
54910;BME280;63189;51.240;9.964;2023-01-30T15:51:14;97686.59;;;2.15;100.00
54910;BME280;63189;51.240;9.964;2023-01-30T15:53:44;97699.47;;;2.14;100.00
54910;BME280;63189;51.240;9.964;2023-01-30T15:56:24;97696.03;;;2.12;100.00
54910;BME280;63189;51.240;9.964;2023-01-30T15:58:50;97714.91;;;2.09;100.00
54910;BME280;63189;51.240;9.964;2023-01-30T16:01:19;97718.31;;;2.05;100.00
54910;BME280;63189;51.240;9.964;2023-01-30T16:03:45;97719.19;;;2.01;100.00